createdAt,value
2022-10-16T00:00:22.922Z,1007.48
2022-10-16T00:01:22.914Z,1007.54
2022-10-16T00:02:22.963Z,1007.49
2022-10-16T00:03:26.589Z,1007.51
2022-10-16T00:04:23.874Z,1007.55
2022-10-16T00:05:22.865Z,1007.59
2022-10-16T00:06:22.865Z,1007.56
2022-10-16T00:07:23.073Z,1007.58
2022-10-16T00:08:22.829Z,1007.65
2022-10-16T00:09:22.825Z,1007.60
2022-10-16T00:10:22.808Z,1007.66
2022-10-16T00:11:22.797Z,1007.64
2022-10-16T00:12:23.141Z,1007.62
2022-10-16T00:13:22.775Z,1007.62
2022-10-16T00:14:22.790Z,1007.67
2022-10-16T00:15:22.879Z,1007.61
2022-10-16T00:16:22.742Z,1007.70
2022-10-16T00:17:22.730Z,1007.67
2022-10-16T00:18:22.722Z,1007.70
2022-10-16T00:19:22.733Z,1007.66
2022-10-16T00:20:22.703Z,1007.67
2022-10-16T00:21:22.692Z,1007.64
2022-10-16T00:22:22.933Z,1007.72
2022-10-16T00:23:22.673Z,1007.65
2022-10-16T00:24:22.682Z,1007.70
2022-10-16T00:25:22.645Z,1007.68
2022-10-16T00:26:22.661Z,1007.74
2022-10-16T00:27:22.625Z,1007.78
2022-10-16T00:28:22.667Z,1007.74
2022-10-16T00:29:22.609Z,1007.74
2022-10-16T00:30:22.591Z,1007.74
2022-10-16T00:31:22.616Z,1007.78
2022-10-16T00:32:22.912Z,1007.73
2022-10-16T00:33:22.556Z,1007.74
2022-10-16T00:34:22.547Z,1007.79
2022-10-16T00:35:22.537Z,1007.84
2022-10-16T00:36:22.544Z,1007.87
2022-10-16T00:37:22.514Z,1007.85
2022-10-16T00:38:22.504Z,1007.82
2022-10-16T00:39:22.493Z,1007.93
2022-10-16T00:40:22.485Z,1007.93
2022-10-16T00:41:22.497Z,1007.90
2022-10-16T00:42:22.515Z,1007.87
2022-10-16T00:43:22.448Z,1007.86
2022-10-16T00:44:22.442Z,1007.84
2022-10-16T00:45:22.429Z,1007.85
2022-10-16T00:46:22.419Z,1007.84
2022-10-16T00:47:22.447Z,1007.81
2022-10-16T00:48:22.395Z,1007.82
2022-10-16T00:49:22.408Z,1007.82
2022-10-16T00:50:22.371Z,1007.75
2022-10-16T00:51:22.365Z,1007.77
2022-10-16T00:52:22.658Z,1007.80
2022-10-16T00:53:22.343Z,1007.76
2022-10-16T00:54:22.350Z,1007.83
2022-10-16T00:55:22.317Z,1007.80
2022-10-16T00:56:22.311Z,1007.80
2022-10-16T00:57:22.299Z,1007.85
2022-10-16T00:58:22.288Z,1007.80
2022-10-16T00:59:22.298Z,1007.81
2022-10-16T01:00:22.263Z,1007.80
2022-10-16T01:01:22.353Z,1007.83
2022-10-16T01:02:22.245Z,1007.88
2022-10-16T01:03:22.253Z,1007.92
2022-10-16T01:04:22.242Z,1007.96
2022-10-16T01:05:22.208Z,1008.02
2022-10-16T01:06:22.387Z,1007.94
2022-10-16T01:07:22.410Z,1007.97
2022-10-16T01:08:22.174Z,1007.90
2022-10-16T01:09:22.187Z,1007.92
2022-10-16T01:10:22.177Z,1007.93
2022-10-16T01:11:22.145Z,1007.91
2022-10-16T01:12:22.130Z,1007.97
2022-10-16T01:13:22.122Z,1008.02
2022-10-16T01:14:22.133Z,1007.99
2022-10-16T01:15:22.097Z,1007.98
2022-10-16T01:16:22.092Z,1007.97
2022-10-16T01:17:22.080Z,1007.98
2022-10-16T01:18:22.070Z,1007.99
2022-10-16T01:19:22.073Z,1008.05
2022-10-16T01:20:22.065Z,1007.99
2022-10-16T01:21:22.034Z,1008.03
2022-10-16T01:22:22.038Z,1008.05
2022-10-16T01:23:22.011Z,1007.99
2022-10-16T01:24:22.004Z,1008.05
2022-10-16T01:25:22.001Z,1008.06
2022-10-16T01:26:21.992Z,1008.01
2022-10-16T01:27:21.977Z,1008.04
2022-10-16T01:28:22.028Z,1008.00
2022-10-16T01:29:21.948Z,1008.02
2022-10-16T01:30:21.960Z,1008.06
2022-10-16T01:31:21.919Z,1008.01
2022-10-16T01:32:21.916Z,1008.10
2022-10-16T01:33:21.904Z,1008.09
2022-10-16T01:34:21.894Z,1008.11
2022-10-16T01:35:21.923Z,1008.09
2022-10-16T01:36:21.870Z,1008.14
2022-10-16T01:37:21.857Z,1008.14
2022-10-16T01:38:21.850Z,1008.11
2022-10-16T01:39:21.833Z,1008.12
2022-10-16T01:40:21.848Z,1008.13
2022-10-16T01:41:21.814Z,1008.15
2022-10-16T01:42:21.802Z,1008.24
2022-10-16T01:43:21.793Z,1008.22
2022-10-16T01:44:21.785Z,1008.25
2022-10-16T01:45:21.787Z,1008.20
2022-10-16T01:46:21.765Z,1008.17
2022-10-16T01:47:21.747Z,1008.21
2022-10-16T01:48:21.745Z,1008.25
2022-10-16T01:49:21.733Z,1008.19
2022-10-16T01:50:21.740Z,1008.18
2022-10-16T01:51:21.727Z,1008.15
2022-10-16T01:52:21.695Z,1008.12
2022-10-16T01:53:21.681Z,1008.18
2022-10-16T01:54:21.670Z,1008.20
2022-10-16T01:55:21.696Z,1008.21
2022-10-16T01:56:21.656Z,1008.23
2022-10-16T01:57:21.643Z,1008.19
2022-10-16T01:58:21.625Z,1008.17
2022-10-16T01:59:21.616Z,1008.25
2022-10-16T02:00:21.604Z,1008.23
2022-10-16T02:01:21.621Z,1008.19
2022-10-16T02:02:21.578Z,1008.27
2022-10-16T02:03:21.571Z,1008.28
2022-10-16T02:04:21.558Z,1008.26
2022-10-16T02:05:21.550Z,1008.24
2022-10-16T02:06:21.567Z,1008.21
2022-10-16T02:07:21.554Z,1008.21
2022-10-16T02:08:21.516Z,1008.26
2022-10-16T02:09:21.509Z,1008.31
2022-10-16T02:10:21.529Z,1008.37
2022-10-16T02:11:21.503Z,1008.37
2022-10-16T02:12:21.473Z,1008.38
2022-10-16T02:13:21.465Z,1008.34
2022-10-16T02:14:21.449Z,1008.37
2022-10-16T02:15:21.437Z,1008.40
2022-10-16T02:16:21.453Z,1008.31
2022-10-16T02:17:21.440Z,1008.37
2022-10-16T02:18:21.413Z,1008.41
2022-10-16T02:19:21.394Z,1008.45
2022-10-16T02:20:21.385Z,1008.50
2022-10-16T02:21:21.371Z,1008.51
2022-10-16T02:22:21.392Z,1008.59
2022-10-16T02:23:21.377Z,1008.56
2022-10-16T02:24:21.340Z,1008.64
2022-10-16T02:25:21.333Z,1008.62
2022-10-16T02:26:21.321Z,1008.62
2022-10-16T02:27:21.311Z,1008.58
2022-10-16T02:28:21.391Z,1008.52
2022-10-16T02:29:21.283Z,1008.45
2022-10-16T02:30:21.273Z,1008.48
2022-10-16T02:31:21.265Z,1008.56
2022-10-16T02:32:21.250Z,1008.52
2022-10-16T02:33:21.262Z,1008.55
2022-10-16T02:34:21.231Z,1008.54
2022-10-16T02:35:21.217Z,1008.53
2022-10-16T02:36:21.211Z,1008.51
2022-10-16T02:37:21.196Z,1008.55
2022-10-16T02:38:21.209Z,1008.61
2022-10-16T02:39:21.196Z,1008.63
2022-10-16T02:40:24.332Z,1008.67
2022-10-16T02:41:21.153Z,1008.67
2022-10-16T02:42:21.140Z,1008.70
2022-10-16T02:43:21.161Z,1008.73
2022-10-16T02:44:21.117Z,1008.75
2022-10-16T02:45:21.112Z,1008.63
2022-10-16T02:46:21.102Z,1008.67
2022-10-16T02:47:21.085Z,1008.65
2022-10-16T02:48:21.097Z,1008.60
2022-10-16T02:49:21.067Z,1008.65
2022-10-16T02:50:21.055Z,1008.62
2022-10-16T02:51:21.045Z,1008.63
2022-10-16T02:52:21.028Z,1008.69
2022-10-16T02:53:21.043Z,1008.59
2022-10-16T02:54:21.010Z,1008.61
2022-10-16T02:55:21.041Z,1008.64
2022-10-16T02:56:20.990Z,1008.58
2022-10-16T02:57:20.974Z,1008.68
2022-10-16T02:58:20.964Z,1008.64
2022-10-16T02:59:20.954Z,1008.70
2022-10-16T03:00:20.969Z,1008.70
2022-10-16T03:01:20.978Z,1008.65
2022-10-16T03:02:20.931Z,1008.70
2022-10-16T03:03:20.918Z,1008.71
2022-10-16T03:04:20.921Z,1008.68
2022-10-16T03:06:20.877Z,1008.64
2022-10-16T03:07:20.866Z,1008.70
2022-10-16T03:08:20.856Z,1008.67
2022-10-16T03:09:20.845Z,1008.68
2022-10-16T03:10:20.858Z,1008.70
2022-10-16T03:11:20.850Z,1008.74
2022-10-16T03:12:20.811Z,1008.71
2022-10-16T03:13:20.800Z,1008.70
2022-10-16T03:14:20.820Z,1008.74
2022-10-16T03:15:20.805Z,1008.70
2022-10-16T03:16:20.767Z,1008.76
2022-10-16T03:17:20.761Z,1008.77
2022-10-16T03:18:20.746Z,1008.82
2022-10-16T03:19:20.755Z,1008.82
2022-10-16T03:20:20.729Z,1008.81
2022-10-16T03:21:20.737Z,1008.79
2022-10-16T03:22:20.704Z,1008.76
2022-10-16T03:23:20.730Z,1008.82
2022-10-16T03:24:20.683Z,1008.87
2022-10-16T03:25:20.691Z,1008.92
2022-10-16T03:26:20.680Z,1008.91
2022-10-16T03:27:20.665Z,1008.96
2022-10-16T03:28:20.684Z,1008.99
2022-10-16T03:29:20.624Z,1008.95
2022-10-16T03:30:20.640Z,1008.97
2022-10-16T03:31:20.607Z,1009.02
2022-10-16T03:32:20.598Z,1008.92
2022-10-16T03:33:20.582Z,1008.95
2022-10-16T03:34:20.566Z,1008.88
2022-10-16T03:35:20.578Z,1008.86
2022-10-16T03:36:20.551Z,1008.94
2022-10-16T03:37:20.550Z,1009.02
2022-10-16T03:38:20.530Z,1009.03
2022-10-16T03:39:20.516Z,1009.02
2022-10-16T03:40:20.572Z,1009.00
2022-10-16T03:41:20.492Z,1009.02
2022-10-16T03:42:20.481Z,1009.05
2022-10-16T03:43:20.497Z,1009.01
2022-10-16T03:44:20.462Z,1009.05
2022-10-16T03:45:20.470Z,1009.07
2022-10-16T03:46:20.443Z,1009.02
2022-10-16T03:47:20.425Z,1009.06
2022-10-16T03:48:20.421Z,1009.13
2022-10-16T03:49:20.413Z,1009.09
2022-10-16T03:50:20.425Z,1009.09
2022-10-16T03:51:20.383Z,1009.15
2022-10-16T03:52:20.378Z,1009.14
2022-10-16T03:53:20.360Z,1009.17
2022-10-16T03:54:20.347Z,1009.23
2022-10-16T03:55:20.368Z,1009.32
2022-10-16T03:56:20.331Z,1009.33
2022-10-16T03:57:20.320Z,1009.34
2022-10-16T03:58:20.309Z,1009.38
2022-10-16T03:59:20.312Z,1009.35
2022-10-16T04:00:20.306Z,1009.40
2022-10-16T04:01:20.365Z,1009.29
2022-10-16T04:02:20.261Z,1009.28
2022-10-16T04:03:20.247Z,1009.29
2022-10-16T04:04:20.237Z,1009.27
2022-10-16T04:05:20.228Z,1009.31
2022-10-16T04:06:20.237Z,1009.37
2022-10-16T04:07:20.203Z,1009.36
2022-10-16T04:08:20.199Z,1009.35
2022-10-16T04:09:20.184Z,1009.31
2022-10-16T04:10:20.178Z,1009.27
2022-10-16T04:11:20.181Z,1009.30
2022-10-16T04:12:20.158Z,1009.36
2022-10-16T04:14:20.129Z,1009.39
2022-10-16T04:15:20.136Z,1009.42
2022-10-16T04:16:20.127Z,1009.40
2022-10-16T04:17:20.096Z,1009.35
2022-10-16T04:18:20.080Z,1009.42
2022-10-16T04:19:20.072Z,1009.40
2022-10-16T04:20:20.068Z,1009.47
2022-10-16T04:21:20.069Z,1009.45
2022-10-16T04:22:20.085Z,1009.49
2022-10-16T04:23:20.028Z,1009.47
2022-10-16T04:24:20.024Z,1009.47
2022-10-16T04:25:20.010Z,1009.53
2022-10-16T04:26:20.021Z,1009.48
2022-10-16T04:27:19.980Z,1009.41
2022-10-16T04:28:20.026Z,1009.40
2022-10-16T04:29:19.966Z,1009.41
2022-10-16T04:30:19.954Z,1009.40
2022-10-16T04:31:19.987Z,1009.43
2022-10-16T04:32:19.934Z,1009.42
2022-10-16T04:33:19.919Z,1009.43
2022-10-16T04:34:19.912Z,1009.39
2022-10-16T04:35:19.894Z,1009.39
2022-10-16T04:36:19.905Z,1009.38
2022-10-16T04:37:19.900Z,1009.28
2022-10-16T04:38:19.864Z,1009.29
2022-10-16T04:39:19.850Z,1009.24
2022-10-16T04:40:19.840Z,1009.26
2022-10-16T04:41:19.831Z,1009.34
2022-10-16T04:42:19.844Z,1009.32
2022-10-16T04:43:19.836Z,1009.39
2022-10-16T04:44:19.794Z,1009.32
2022-10-16T04:45:19.786Z,1009.31
2022-10-16T04:46:19.775Z,1009.33
2022-10-16T04:47:19.812Z,1009.34
2022-10-16T04:48:19.753Z,1009.38
2022-10-16T04:49:19.749Z,1009.33
2022-10-16T04:50:19.728Z,1009.30
2022-10-16T04:51:19.721Z,1009.28
2022-10-16T04:52:19.737Z,1009.26
2022-10-16T04:53:19.702Z,1009.24
2022-10-16T04:54:19.686Z,1009.26
2022-10-16T04:55:19.678Z,1009.23
2022-10-16T04:56:19.665Z,1009.16
2022-10-16T04:57:19.681Z,1009.23
2022-10-16T04:58:19.646Z,1009.18
2022-10-16T04:59:19.628Z,1009.25
2022-10-16T05:00:19.626Z,1009.28
2022-10-16T05:01:19.631Z,1009.30
2022-10-16T05:02:19.637Z,1009.29
2022-10-16T05:03:19.818Z,1009.29
2022-10-16T05:04:19.582Z,1009.30
2022-10-16T05:05:19.568Z,1009.36
2022-10-16T05:06:19.583Z,1009.40
2022-10-16T05:07:19.546Z,1009.42
2022-10-16T05:08:19.551Z,1009.41
2022-10-16T05:09:19.519Z,1009.42
2022-10-16T05:10:19.515Z,1009.44
2022-10-16T05:11:19.523Z,1009.50
2022-10-16T05:12:19.492Z,1009.55
2022-10-16T05:13:19.498Z,1009.60
2022-10-16T05:14:19.470Z,1009.61
2022-10-16T05:15:19.455Z,1009.61
2022-10-16T05:16:19.447Z,1009.67
2022-10-16T05:17:19.437Z,1009.61
2022-10-16T05:18:19.444Z,1009.67
2022-10-16T05:19:28.103Z,1009.63
2022-10-16T05:20:20.401Z,1009.67
2022-10-16T05:21:19.393Z,1009.60
2022-10-16T05:22:19.379Z,1009.68
2022-10-16T05:23:19.370Z,1009.75
2022-10-16T05:24:19.390Z,1009.72
2022-10-16T05:25:19.344Z,1009.72
2022-10-16T05:26:19.341Z,1009.70
2022-10-16T05:27:19.334Z,1009.64
2022-10-16T05:28:19.393Z,1009.70
2022-10-16T05:29:19.319Z,1009.63
2022-10-16T05:30:19.302Z,1009.65
2022-10-16T05:31:19.279Z,1009.68
2022-10-16T05:32:19.274Z,1009.67
2022-10-16T05:33:19.263Z,1009.72
2022-10-16T05:34:19.272Z,1009.66
2022-10-16T05:35:19.277Z,1009.62
2022-10-16T05:36:19.229Z,1009.62
2022-10-16T05:37:19.225Z,1009.63
2022-10-16T05:38:19.204Z,1009.65
2022-10-16T05:39:19.220Z,1009.65
2022-10-16T05:40:19.220Z,1009.66
2022-10-16T05:41:19.174Z,1009.66
2022-10-16T05:42:19.165Z,1009.73
2022-10-16T05:43:19.155Z,1009.71
2022-10-16T05:44:19.139Z,1009.81
2022-10-16T05:45:19.146Z,1009.88
2022-10-16T05:46:19.143Z,1009.92
2022-10-16T05:47:19.113Z,1009.87
2022-10-16T05:48:19.104Z,1009.90
2022-10-16T05:49:19.106Z,1009.98
2022-10-16T05:50:19.104Z,1009.96
2022-10-16T05:51:19.115Z,1009.93
2022-10-16T05:52:19.073Z,1009.97
2022-10-16T05:53:19.050Z,1009.95
2022-10-16T05:54:19.052Z,1009.94
2022-10-16T05:55:19.028Z,1009.91
2022-10-16T05:56:19.040Z,1009.88
2022-10-16T05:57:19.006Z,1009.85
2022-10-16T05:58:18.996Z,1009.88
2022-10-16T05:59:19.003Z,1009.80
2022-10-16T06:00:18.981Z,1009.87
2022-10-16T06:01:19.075Z,1009.87
2022-10-16T06:02:18.947Z,1009.91
2022-10-16T06:03:18.944Z,1009.91
2022-10-16T06:04:18.929Z,1009.85
2022-10-16T06:05:18.929Z,1009.91
2022-10-16T06:06:18.938Z,1009.91
2022-10-16T06:07:18.920Z,1009.91
2022-10-16T06:08:18.886Z,1009.94
2022-10-16T06:09:18.914Z,1009.98
2022-10-16T06:10:18.860Z,1009.90
2022-10-16T06:11:18.849Z,1009.95
2022-10-16T06:12:18.848Z,1010.06
2022-10-16T06:13:18.853Z,1010.08
2022-10-16T06:14:18.818Z,1010.06
2022-10-16T06:15:18.822Z,1010.06
2022-10-16T06:16:18.796Z,1010.11
2022-10-16T06:17:18.816Z,1010.07
2022-10-16T06:18:18.779Z,1010.09
2022-10-16T06:19:18.765Z,1010.05
2022-10-16T06:20:18.758Z,1010.06
2022-10-16T06:21:18.742Z,1010.05
2022-10-16T06:22:18.758Z,1010.06
2022-10-16T06:23:18.744Z,1010.02
2022-10-16T06:24:18.715Z,1010.08
2022-10-16T06:25:18.708Z,1010.03
2022-10-16T06:26:18.695Z,1010.06
2022-10-16T06:27:18.725Z,1010.07
2022-10-16T06:28:18.805Z,1010.03
2022-10-16T06:29:18.659Z,1010.07
2022-10-16T06:30:18.651Z,1010.03
2022-10-16T06:31:18.640Z,1010.05
2022-10-16T06:32:18.629Z,1010.04
2022-10-16T06:33:18.643Z,1010.05
2022-10-16T06:34:18.607Z,1010.13
2022-10-16T06:35:18.593Z,1010.16
2022-10-16T06:36:18.581Z,1010.14
2022-10-16T06:37:18.572Z,1010.24
2022-10-16T06:38:18.581Z,1010.24
2022-10-16T06:39:18.573Z,1010.26
2022-10-16T06:40:18.538Z,1010.25
2022-10-16T06:41:18.536Z,1010.26
2022-10-16T06:42:18.542Z,1010.35
2022-10-16T06:43:18.503Z,1010.36
2022-10-16T06:44:18.501Z,1010.40
2022-10-16T06:45:18.487Z,1010.35
2022-10-16T06:46:18.479Z,1010.36
2022-10-16T06:47:18.499Z,1010.41
2022-10-16T06:48:18.451Z,1010.41
2022-10-16T06:49:18.446Z,1010.44
2022-10-16T06:50:18.426Z,1010.44
2022-10-16T06:51:18.426Z,1010.46
2022-10-16T06:52:18.406Z,1010.47
2022-10-16T06:53:18.430Z,1010.43
2022-10-16T06:54:18.387Z,1010.43
2022-10-16T06:55:18.397Z,1010.43
2022-10-16T06:56:18.362Z,1010.50
2022-10-16T06:57:18.370Z,1010.55
2022-10-16T06:58:18.363Z,1010.48
2022-10-16T06:59:18.333Z,1010.47
2022-10-16T07:00:18.363Z,1010.41
2022-10-16T07:01:18.319Z,1010.48
2022-10-16T07:02:18.302Z,1010.49
2022-10-16T07:03:18.318Z,1010.51
2022-10-16T07:04:18.281Z,1010.55
2022-10-16T07:05:18.270Z,1010.60
2022-10-16T07:06:18.254Z,1010.64
2022-10-16T07:07:18.276Z,1010.55
2022-10-16T07:08:18.265Z,1010.55
2022-10-16T07:09:18.264Z,1010.62
2022-10-16T07:10:18.210Z,1010.59
2022-10-16T07:11:18.226Z,1010.64
2022-10-16T07:12:18.186Z,1010.64
2022-10-16T07:13:18.204Z,1010.73
2022-10-16T07:14:18.165Z,1010.81
2022-10-16T07:15:18.167Z,1010.75
2022-10-16T07:16:18.144Z,1010.79
2022-10-16T07:17:18.159Z,1010.84
2022-10-16T07:18:18.155Z,1010.80
2022-10-16T07:19:18.120Z,1010.84
2022-10-16T07:20:18.102Z,1010.86
2022-10-16T07:21:18.093Z,1010.85
2022-10-16T07:22:18.101Z,1010.84
2022-10-16T07:23:18.093Z,1010.81
2022-10-16T07:24:18.057Z,1010.81
2022-10-16T07:25:18.051Z,1010.73
2022-10-16T07:26:18.064Z,1010.78
2022-10-16T07:27:18.072Z,1010.78
2022-10-16T07:28:18.039Z,1010.64
2022-10-16T07:29:18.001Z,1010.69
2022-10-16T07:30:17.997Z,1010.66
2022-10-16T07:31:17.987Z,1010.66
2022-10-16T07:32:17.975Z,1010.77
2022-10-16T07:33:17.985Z,1010.77
2022-10-16T07:34:17.950Z,1010.73
2022-10-16T07:35:18.047Z,1010.74
2022-10-16T07:36:17.924Z,1010.74
2022-10-16T07:37:17.918Z,1010.77
2022-10-16T07:38:17.926Z,1010.79
2022-10-16T07:39:17.896Z,1010.71
2022-10-16T07:40:17.885Z,1010.73
2022-10-16T07:41:17.894Z,1010.74
2022-10-16T07:42:17.863Z,1010.79
2022-10-16T07:43:17.877Z,1010.76
2022-10-16T07:44:17.838Z,1010.79
2022-10-16T07:45:17.830Z,1010.89
2022-10-16T07:46:17.889Z,1010.84
2022-10-16T07:47:17.807Z,1010.88
2022-10-16T07:48:17.815Z,1010.98
2022-10-16T07:49:17.781Z,1010.91
2022-10-16T07:50:17.772Z,1010.86
2022-10-16T07:51:17.763Z,1010.92
2022-10-16T07:52:17.747Z,1010.84
2022-10-16T07:53:17.761Z,1010.80
2022-10-16T07:54:17.730Z,1010.76
2022-10-16T07:55:17.719Z,1010.79
2022-10-16T07:56:17.725Z,1010.78
2022-10-16T07:57:17.695Z,1010.79
2022-10-16T07:58:17.685Z,1010.78
2022-10-16T07:59:17.715Z,1010.82
2022-10-16T08:00:17.659Z,1010.79
2022-10-16T08:01:17.738Z,1010.78
2022-10-16T08:02:17.636Z,1010.82
2022-10-16T08:03:17.627Z,1010.86
2022-10-16T08:04:17.619Z,1010.92
2022-10-16T08:05:17.610Z,1010.92
2022-10-16T08:06:19.655Z,1010.98
2022-10-16T08:07:17.587Z,1011.10
2022-10-16T08:08:17.570Z,1011.04
2022-10-16T08:09:17.574Z,1011.12
2022-10-16T08:10:17.553Z,1011.15
2022-10-16T08:11:17.567Z,1011.20
2022-10-16T08:12:17.531Z,1011.21
2022-10-16T08:13:17.519Z,1011.20
2022-10-16T08:14:17.508Z,1011.16
2022-10-16T08:15:17.516Z,1011.20
2022-10-16T08:16:17.509Z,1011.18
2022-10-16T08:17:17.476Z,1011.19
2022-10-16T08:18:17.472Z,1011.18
2022-10-16T08:19:17.456Z,1011.23
2022-10-16T08:20:17.441Z,1011.16
2022-10-16T08:21:20.447Z,1011.13
2022-10-16T08:22:17.428Z,1011.12
2022-10-16T08:23:17.407Z,1011.14
2022-10-16T08:24:17.399Z,1011.06
2022-10-16T08:25:17.390Z,1011.03
2022-10-16T08:26:17.400Z,1011.06
2022-10-16T08:27:17.366Z,1010.98
2022-10-16T08:28:17.350Z,1011.02
2022-10-16T08:29:17.347Z,1011.00
2022-10-16T08:30:17.329Z,1011.05
2022-10-16T08:32:17.315Z,1011.15
2022-10-16T08:33:17.302Z,1011.19
2022-10-16T08:34:17.289Z,1011.23
2022-10-16T08:35:17.275Z,1011.24
2022-10-16T08:36:17.307Z,1011.24
2022-10-16T08:37:17.257Z,1011.23
2022-10-16T08:38:17.248Z,1011.23
2022-10-16T08:39:17.237Z,1011.26
2022-10-16T08:40:17.268Z,1011.25
2022-10-16T08:41:17.238Z,1011.25
2022-10-16T08:42:17.197Z,1011.19
2022-10-16T08:43:17.197Z,1011.21
2022-10-16T08:44:17.201Z,1011.18
2022-10-16T08:45:17.171Z,1011.23
2022-10-16T08:46:17.162Z,1011.24
2022-10-16T08:47:17.191Z,1011.27
2022-10-16T08:48:17.138Z,1011.31
2022-10-16T08:49:17.125Z,1011.33
2022-10-16T08:50:17.141Z,1011.31
2022-10-16T08:51:17.115Z,1011.28
2022-10-16T08:52:17.124Z,1011.25
2022-10-16T08:53:17.084Z,1011.21
2022-10-16T08:54:17.078Z,1011.20
2022-10-16T08:55:17.066Z,1011.21
2022-10-16T08:56:17.049Z,1011.22
2022-10-16T08:57:21.258Z,1011.29
2022-10-16T08:58:18.029Z,1011.33
2022-10-16T08:59:17.029Z,1011.32
2022-10-16T09:00:17.036Z,1011.31
2022-10-16T09:01:17.116Z,1011.30
2022-10-16T09:02:16.987Z,1011.39
2022-10-16T09:03:16.997Z,1011.41
2022-10-16T09:04:16.972Z,1011.43
2022-10-16T09:05:16.984Z,1011.50
2022-10-16T09:06:16.943Z,1011.48
2022-10-16T09:07:16.967Z,1011.45
2022-10-16T09:08:16.923Z,1011.42
2022-10-16T09:09:16.910Z,1011.45
2022-10-16T09:10:16.899Z,1011.51
2022-10-16T09:11:16.907Z,1011.56
2022-10-16T09:12:16.901Z,1011.50
2022-10-16T09:13:16.869Z,1011.54
2022-10-16T09:14:16.886Z,1011.59
2022-10-16T09:15:16.846Z,1011.59
2022-10-16T09:16:16.836Z,1011.59
2022-10-16T09:17:16.855Z,1011.62
2022-10-16T09:18:16.812Z,1011.62
2022-10-16T09:19:16.834Z,1011.56
2022-10-16T09:20:16.795Z,1011.56
2022-10-16T09:21:16.781Z,1011.57
2022-10-16T09:22:16.789Z,1011.63
2022-10-16T09:23:16.763Z,1011.61
2022-10-16T09:24:16.751Z,1011.57
2022-10-16T09:25:16.742Z,1011.53
2022-10-16T09:26:16.765Z,1011.51
2022-10-16T09:27:16.737Z,1011.58
2022-10-16T09:28:16.715Z,1011.54
2022-10-16T09:29:16.700Z,1011.48
2022-10-16T09:30:16.700Z,1011.60
2022-10-16T09:31:16.680Z,1011.56
2022-10-16T09:32:16.667Z,1011.59
2022-10-16T09:33:16.685Z,1011.61
2022-10-16T09:34:16.644Z,1011.63
2022-10-16T09:35:16.651Z,1011.63
2022-10-16T09:36:16.623Z,1011.55
2022-10-16T09:37:16.610Z,1011.57
2022-10-16T09:38:16.621Z,1011.54
2022-10-16T09:39:16.586Z,1011.59
2022-10-16T09:40:16.595Z,1011.57
2022-10-16T09:41:16.581Z,1011.61
2022-10-16T09:42:16.556Z,1011.60
2022-10-16T09:43:16.571Z,1011.61
2022-10-16T09:44:16.535Z,1011.66
2022-10-16T09:45:16.548Z,1011.68
2022-10-16T09:46:16.508Z,1011.72
2022-10-16T09:47:16.501Z,1011.73
2022-10-16T09:48:16.491Z,1011.72
2022-10-16T09:49:16.481Z,1011.78
2022-10-16T09:50:16.496Z,1011.74
2022-10-16T09:51:16.491Z,1011.85
2022-10-16T09:52:16.448Z,1011.85
2022-10-16T09:53:16.456Z,1011.87
2022-10-16T09:54:16.428Z,1011.91
2022-10-16T09:55:16.442Z,1011.85
2022-10-16T09:56:16.403Z,1011.92
2022-10-16T09:57:16.393Z,1011.89
2022-10-16T09:58:16.405Z,1011.88
2022-10-16T09:59:16.370Z,1011.92
2022-10-16T10:00:16.392Z,1011.91
2022-10-16T10:01:16.350Z,1011.84
2022-10-16T10:02:16.342Z,1011.93
2022-10-16T10:03:16.351Z,1011.91
2022-10-16T10:04:16.342Z,1011.97
2022-10-16T10:05:16.306Z,1011.92
2022-10-16T10:06:16.298Z,1011.97
2022-10-16T10:07:16.303Z,1012.00
2022-10-16T10:08:16.277Z,1011.92
2022-10-16T10:09:16.286Z,1011.96
2022-10-16T10:10:16.312Z,1011.98
2022-10-16T10:11:16.288Z,1011.96
2022-10-16T10:12:16.234Z,1012.00
2022-10-16T10:13:16.218Z,1011.96
2022-10-16T10:14:16.239Z,1011.99
2022-10-16T10:15:16.200Z,1012.02
2022-10-16T10:16:16.188Z,1012.03
2022-10-16T10:17:16.177Z,1012.03
2022-10-16T10:18:16.167Z,1012.05
2022-10-16T10:19:16.179Z,1012.04
2022-10-16T10:20:16.290Z,1012.00
2022-10-16T10:21:16.129Z,1012.06
2022-10-16T10:22:16.132Z,1012.09
2022-10-16T10:23:16.132Z,1012.10
2022-10-16T10:24:16.125Z,1012.12
2022-10-16T10:25:16.100Z,1012.12
2022-10-16T10:26:16.085Z,1012.11
2022-10-16T10:27:16.074Z,1012.19
2022-10-16T10:28:16.057Z,1012.13
2022-10-16T10:29:16.065Z,1012.05
2022-10-16T10:31:16.048Z,1012.08
2022-10-16T10:32:16.023Z,1012.15
2022-10-16T10:33:16.003Z,1012.20
2022-10-16T10:34:15.993Z,1012.23
2022-10-16T10:35:16.005Z,1012.28
2022-10-16T10:36:15.968Z,1012.29
2022-10-16T10:37:15.984Z,1012.32
2022-10-16T10:38:15.953Z,1012.35
2022-10-16T10:39:16.023Z,1012.45
2022-10-16T10:40:15.952Z,1012.42
2022-10-16T10:41:15.916Z,1012.43
2022-10-16T10:42:15.905Z,1012.39
2022-10-16T10:43:15.897Z,1012.42
2022-10-16T10:44:15.894Z,1012.44
2022-10-16T10:45:15.893Z,1012.45
2022-10-16T10:46:15.860Z,1012.36
2022-10-16T10:47:15.880Z,1012.42
2022-10-16T10:48:15.898Z,1012.42
2022-10-16T10:49:15.834Z,1012.37
2022-10-16T10:50:15.824Z,1012.35
2022-10-16T10:51:15.808Z,1012.18
2022-10-16T10:52:15.826Z,1012.29
2022-10-16T10:53:15.790Z,1012.34
2022-10-16T10:54:15.785Z,1012.32
2022-10-16T10:55:15.791Z,1012.39
2022-10-16T10:56:15.763Z,1012.30
2022-10-16T10:57:15.772Z,1012.27
2022-10-16T10:58:15.735Z,1012.27
2022-10-16T10:59:15.725Z,1012.28
2022-10-16T11:00:15.713Z,1012.33
2022-10-16T11:01:15.698Z,1012.42
2022-10-16T11:02:15.829Z,1012.43
2022-10-16T11:03:15.680Z,1012.42
2022-10-16T11:04:15.671Z,1012.35
2022-10-16T11:05:15.652Z,1012.33
2022-10-16T11:06:15.650Z,1012.43
2022-10-16T11:07:15.653Z,1012.38
2022-10-16T11:08:15.624Z,1012.32
2022-10-16T11:09:15.616Z,1012.35
2022-10-16T11:10:15.607Z,1012.37
2022-10-16T11:11:15.613Z,1012.41
2022-10-16T11:12:15.604Z,1012.37
2022-10-16T11:13:15.573Z,1012.36
2022-10-16T11:14:15.562Z,1012.34
2022-10-16T11:15:15.554Z,1012.34
2022-10-16T11:16:17.664Z,1012.35
2022-10-16T11:17:16.553Z,1012.36
2022-10-16T11:18:15.522Z,1012.38
2022-10-16T11:19:15.505Z,1012.37
2022-10-16T11:20:15.501Z,1012.37
2022-10-16T11:21:15.487Z,1012.32
2022-10-16T11:22:15.506Z,1012.34
2022-10-16T11:23:15.474Z,1012.35
2022-10-16T11:24:15.458Z,1012.34
2022-10-16T11:25:15.445Z,1012.33
2022-10-16T11:26:15.445Z,1012.33
2022-10-16T11:27:15.442Z,1012.30
2022-10-16T11:28:15.435Z,1012.29
2022-10-16T11:29:15.446Z,1012.34
2022-10-16T11:30:15.421Z,1012.32
2022-10-16T11:31:15.385Z,1012.36
2022-10-16T11:32:15.372Z,1012.29
2022-10-16T11:33:15.384Z,1012.32
2022-10-16T11:34:15.352Z,1012.29
2022-10-16T11:35:15.351Z,1012.30
2022-10-16T11:36:15.331Z,1012.31
2022-10-16T11:37:15.319Z,1012.30
2022-10-16T11:38:15.329Z,1012.26
2022-10-16T11:39:15.293Z,1012.31
2022-10-16T11:40:15.286Z,1012.34
2022-10-16T11:41:15.279Z,1012.32
2022-10-16T11:42:15.264Z,1012.31
2022-10-16T11:43:15.292Z,1012.27
2022-10-16T11:44:15.241Z,1012.29
2022-10-16T11:45:15.238Z,1012.26
2022-10-16T11:46:15.215Z,1012.32
2022-10-16T11:47:39.746Z,1012.26
2022-10-16T11:48:16.194Z,1012.27
2022-10-16T11:49:15.189Z,1012.31
2022-10-16T11:50:15.180Z,1012.28
2022-10-16T11:51:15.163Z,1012.31
2022-10-16T11:52:15.186Z,1012.30
2022-10-16T11:53:15.143Z,1012.39
2022-10-16T11:54:15.128Z,1012.35
2022-10-16T11:55:15.125Z,1012.40
2022-10-16T11:56:15.104Z,1012.39
2022-10-16T11:57:15.124Z,1012.41
2022-10-16T11:58:15.088Z,1012.39
2022-10-16T11:59:15.095Z,1012.40
2022-10-16T12:00:15.069Z,1012.40
2022-10-16T12:01:15.143Z,1012.38
2022-10-16T12:02:15.070Z,1012.43
2022-10-16T12:03:15.140Z,1012.45
2022-10-16T12:04:15.026Z,1012.36
2022-10-16T12:05:15.009Z,1012.40
2022-10-16T12:06:15.012Z,1012.44
2022-10-16T12:07:14.988Z,1012.47
2022-10-16T12:08:15.002Z,1012.52
2022-10-16T12:09:14.966Z,1012.53